TKY730W EPGD-LIMF
Flight info
| Callsign | TKY730W |
|---|---|
| Flight time | 2h 6m |
| Altitude | 38000 |
| Route | DEXIR T671 VEKON L730 LUXAL P31 XERBI/N0472F390 L996 DENKO/N0474F400 N858 SUBIX Z20 MAG M736 GALMA Z94 ERF/N0433F240 Z94 VAGAB/N0474F390 Y231 AMOSA/N0475F400 N869 TEDGO/N0475F390 N851 LOKTA/N0476F400 DCT SONOM/N0477F390 DCT BASGO/N0472F290 Z424 AKASU DCT NELAB |
| Aircraft | A339/H-SADE1E2E3GHIJ3J5M1P2RWXY/LB2D1 |
Departure
| Time | 2026-05-06 21:16 |
|---|---|
| Airport | Gdańsk Lech Wałęsa Airport (EPGD) |
Arrival
| Time | 2026-05-06 23:22 |
|---|---|
| Airport | Turin Airport (LIMF) |
| Time | Latitude | Longitude | Altitude | Speed | Heading |
|---|---|---|---|---|---|
| 2026-05-06 21:06 | 54.38032 | 18.46721 | 459 ft | 0 kts | 23° |
| 2026-05-06 21:06 | 54.38031 | 18.46721 | 459 ft | 0 kts | 23° |
| 2026-05-06 21:07 | 54.38030 | 18.46720 | 459 ft | 1 kts | 23° |
| 2026-05-06 21:07 | 54.38021 | 18.46713 | 459 ft | 2 kts | 21° |
| 2026-05-06 21:07 | 54.38007 | 18.46707 | 458 ft | 2 kts | 1° |
| 2026-05-06 21:07 | 54.37992 | 18.46709 | 458 ft | 2 kts | 350° |
| 2026-05-06 21:08 | 54.37978 | 18.46715 | 458 ft | 2 kts | 337° |
| 2026-05-06 21:08 | 54.37964 | 18.46727 | 458 ft | 2 kts | 324° |
| 2026-05-06 21:08 | 54.37953 | 18.46743 | 458 ft | 2 kts | 311° |
| 2026-05-06 21:08 | 54.37944 | 18.46764 | 458 ft | 2 kts | 298° |
| 2026-05-06 21:09 | 54.37941 | 18.46775 | 458 ft | 1 kts | 292° |
| 2026-05-06 21:09 | 54.37940 | 18.46779 | 458 ft | 0 kts | 293° |
| 2026-05-06 21:11 | 54.37943 | 18.46764 | 458 ft | 3 kts | 293° |
| 2026-05-06 21:11 | 54.37955 | 18.46720 | 457 ft | 4 kts | 294° |
| 2026-05-06 21:11 | 54.37970 | 18.46660 | 457 ft | 6 kts | 293° |
| 2026-05-06 21:12 | 54.37974 | 18.46580 | 457 ft | 7 kts | 260° |
| 2026-05-06 21:12 | 54.37970 | 18.46479 | 457 ft | 9 kts | 286° |
| 2026-05-06 21:12 | 54.37996 | 18.46371 | 457 ft | 10 kts | 293° |
| 2026-05-06 21:12 | 54.38027 | 18.46251 | 457 ft | 11 kts | 292° |
| 2026-05-06 21:13 | 54.38059 | 18.46122 | 457 ft | 12 kts | 292° |
| 2026-05-06 21:13 | 54.38094 | 18.45978 | 455 ft | 13 kts | 293° |
| 2026-05-06 21:13 | 54.38124 | 18.45858 | 456 ft | 10 kts | 293° |
| 2026-05-06 21:13 | 54.38146 | 18.45735 | 456 ft | 11 kts | 271° |
| 2026-05-06 21:14 | 54.38120 | 18.45651 | 456 ft | 7 kts | 216° |
| 2026-05-06 21:14 | 54.38064 | 18.45597 | 455 ft | 10 kts | 202° |
| 2026-05-06 21:14 | 54.38010 | 18.45617 | 454 ft | 7 kts | 129° |
| 2026-05-06 21:14 | 54.37994 | 18.45670 | 453 ft | 3 kts | 113° |
| 2026-05-06 21:15 | 54.37933 | 18.45914 | 454 ft | 53 kts | 112° |
| 2026-05-06 21:15 | 54.37697 | 18.46859 | 457 ft | 114 kts | 112° |
| 2026-05-06 21:15 | 54.37317 | 18.48391 | 487 ft | 161 kts | 111° |
| 2026-05-06 21:15 | 54.36838 | 18.50214 | 918 ft | 170 kts | 109° |
| 2026-05-06 21:16 | 54.36374 | 18.52005 | 1671 ft | 162 kts | 105° |
| 2026-05-06 21:16 | 54.35945 | 18.53756 | 2363 ft | 160 kts | 105° |
| 2026-05-06 21:16 | 54.35509 | 18.55578 | 2728 ft | 175 kts | 107° |
| 2026-05-06 21:16 | 54.35022 | 18.57604 | 3102 ft | 192 kts | 108° |
| 2026-05-06 21:17 | 54.34489 | 18.59781 | 3602 ft | 201 kts | 109° |
| 2026-05-06 21:17 | 54.33942 | 18.61994 | 4161 ft | 207 kts | 110° |
| 2026-05-06 21:17 | 54.33349 | 18.64327 | 4757 ft | 212 kts | 117° |
| 2026-05-06 21:17 | 54.32294 | 18.66152 | 5104 ft | 225 kts | 160° |
| 2026-05-06 21:18 | 54.30759 | 18.66366 | 5526 ft | 230 kts | 201° |
| 2026-05-06 21:18 | 54.29304 | 18.65260 | 6257 ft | 229 kts | 208° |
| 2026-05-06 21:18 | 54.27887 | 18.64162 | 7031 ft | 228 kts | 207° |
| 2026-05-06 21:18 | 54.26462 | 18.63048 | 7762 ft | 227 kts | 215° |
| 2026-05-06 21:19 | 54.25383 | 18.61164 | 8459 ft | 225 kts | 238° |
| 2026-05-06 21:19 | 54.24457 | 18.59025 | 9121 ft | 229 kts | 230° |
| 2026-05-06 21:19 | 54.23367 | 18.57029 | 9794 ft | 231 kts | 232° |
| 2026-05-06 21:19 | 54.22324 | 18.54891 | 10324 ft | 240 kts | 232° |
| 2026-05-06 21:20 | 54.21237 | 18.52597 | 10647 ft | 258 kts | 233° |
| 2026-05-06 21:20 | 54.20097 | 18.50163 | 10960 ft | 275 kts | 233° |
| 2026-05-06 21:20 | 54.18859 | 18.47525 | 11275 ft | 293 kts | 232° |
| 2026-05-06 21:20 | 54.17523 | 18.44803 | 11578 ft | 310 kts | 231° |
| 2026-05-06 21:21 | 54.16086 | 18.41911 | 11876 ft | 327 kts | 231° |
| 2026-05-06 21:21 | 54.14578 | 18.38879 | 12173 ft | 344 kts | 231° |
| 2026-05-06 21:21 | 54.13014 | 18.35731 | 12523 ft | 357 kts | 231° |
| 2026-05-06 21:21 | 54.11408 | 18.32495 | 13155 ft | 362 kts | 230° |
| 2026-05-06 21:22 | 54.09780 | 18.29217 | 13863 ft | 365 kts | 230° |
| 2026-05-06 21:22 | 54.08135 | 18.25902 | 14511 ft | 370 kts | 230° |
| 2026-05-06 21:22 | 54.06479 | 18.22572 | 15202 ft | 373 kts | 230° |
| 2026-05-06 21:22 | 54.04806 | 18.19210 | 15866 ft | 376 kts | 230° |
| 2026-05-06 21:23 | 54.03112 | 18.15809 | 16525 ft | 380 kts | 230° |
| 2026-05-06 21:23 | 54.01405 | 18.12382 | 17167 ft | 383 kts | 230° |
| 2026-05-06 21:23 | 53.99673 | 18.08913 | 17800 ft | 387 kts | 230° |
| 2026-05-06 21:23 | 53.97923 | 18.05413 | 18427 ft | 390 kts | 230° |
| 2026-05-06 21:24 | 53.96178 | 18.01927 | 19036 ft | 393 kts | 230° |
| 2026-05-06 21:24 | 53.94393 | 17.98368 | 19669 ft | 396 kts | 230° |
| 2026-05-06 21:24 | 53.92570 | 17.94740 | 20293 ft | 398 kts | 230° |
| 2026-05-06 21:24 | 53.90749 | 17.91117 | 20890 ft | 401 kts | 230° |
| 2026-05-06 21:25 | 53.88955 | 17.87556 | 21466 ft | 403 kts | 230° |
| 2026-05-06 21:25 | 53.87123 | 17.83922 | 22014 ft | 406 kts | 230° |
| 2026-05-06 21:25 | 53.85296 | 17.80302 | 22553 ft | 408 kts | 230° |
| 2026-05-06 21:25 | 53.83469 | 17.76690 | 23067 ft | 410 kts | 230° |
| 2026-05-06 21:26 | 53.81597 | 17.72994 | 23568 ft | 413 kts | 230° |
| 2026-05-06 21:26 | 53.79744 | 17.69340 | 24071 ft | 415 kts | 230° |
| 2026-05-06 21:26 | 53.77856 | 17.65619 | 24604 ft | 416 kts | 230° |
| 2026-05-06 21:26 | 53.75986 | 17.61942 | 25125 ft | 417 kts | 230° |
| 2026-05-06 21:27 | 53.74120 | 17.58273 | 25629 ft | 418 kts | 230° |
| 2026-05-06 21:27 | 53.72202 | 17.54516 | 26106 ft | 419 kts | 229° |
| 2026-05-06 21:27 | 53.70301 | 17.50794 | 26576 ft | 421 kts | 229° |
| 2026-05-06 21:27 | 53.68413 | 17.47105 | 27037 ft | 422 kts | 229° |
| 2026-05-06 21:28 | 53.66484 | 17.43338 | 27496 ft | 423 kts | 229° |
| 2026-05-06 21:28 | 53.64563 | 17.39599 | 27906 ft | 424 kts | 229° |
| 2026-05-06 21:28 | 53.62637 | 17.35854 | 28275 ft | 426 kts | 228° |
| 2026-05-06 21:28 | 53.60690 | 17.32077 | 28678 ft | 428 kts | 227° |
| 2026-05-06 21:29 | 53.58724 | 17.28271 | 29092 ft | 429 kts | 227° |
| 2026-05-06 21:29 | 53.56785 | 17.24519 | 29485 ft | 429 kts | 227° |
| 2026-05-06 21:29 | 53.54833 | 17.20748 | 30002 ft | 427 kts | 227° |
| 2026-05-06 21:29 | 53.52884 | 17.16986 | 30595 ft | 423 kts | 227° |
| 2026-05-06 21:30 | 53.50979 | 17.13312 | 31089 ft | 420 kts | 226° |
| 2026-05-06 21:30 | 53.49063 | 17.09637 | 31475 ft | 419 kts | 227° |
| 2026-05-06 21:30 | 53.47152 | 17.05977 | 31833 ft | 419 kts | 227° |
| 2026-05-06 21:30 | 53.45231 | 17.02296 | 32175 ft | 420 kts | 227° |
| 2026-05-06 21:31 | 53.43312 | 16.98625 | 32534 ft | 419 kts | 228° |
| 2026-05-06 21:31 | 53.41399 | 16.94967 | 32925 ft | 418 kts | 228° |
| 2026-05-06 21:31 | 53.39476 | 16.91291 | 33261 ft | 418 kts | 228° |
| 2026-05-06 21:31 | 53.37562 | 16.87643 | 33540 ft | 419 kts | 228° |
| 2026-05-06 21:32 | 53.35630 | 16.83965 | 33856 ft | 419 kts | 229° |
| 2026-05-06 21:32 | 53.31786 | 16.76660 | 34514 ft | 418 kts | 229° |
| 2026-05-06 21:32 | 53.29885 | 16.73055 | 34808 ft | 418 kts | 229° |
| 2026-05-06 21:33 | 53.27961 | 16.69408 | 35032 ft | 418 kts | 229° |
| 2026-05-06 21:33 | 53.26021 | 16.65734 | 35227 ft | 419 kts | 229° |
| 2026-05-06 21:33 | 53.24098 | 16.62102 | 35407 ft | 420 kts | 229° |
| 2026-05-06 21:33 | 53.22181 | 16.58488 | 35450 ft | 421 kts | 229° |
| 2026-05-06 21:34 | 53.20228 | 16.54810 | 35622 ft | 422 kts | 229° |
| 2026-05-06 21:34 | 53.18283 | 16.51150 | 35756 ft | 423 kts | 229° |
| 2026-05-06 21:34 | 53.16318 | 16.47463 | 35894 ft | 424 kts | 229° |
| 2026-05-06 21:34 | 53.14382 | 16.43835 | 36033 ft | 425 kts | 229° |
| 2026-05-06 21:35 | 53.12405 | 16.40136 | 36184 ft | 426 kts | 229° |
| 2026-05-06 21:35 | 53.10460 | 16.36502 | 36380 ft | 426 kts | 229° |
| 2026-05-06 21:35 | 53.08485 | 16.32820 | 36578 ft | 427 kts | 228° |
| 2026-05-06 21:35 | 53.06514 | 16.29146 | 36796 ft | 428 kts | 228° |
| 2026-05-06 21:36 | 53.04529 | 16.25453 | 37020 ft | 428 kts | 228° |
| 2026-05-06 21:36 | 53.02565 | 16.21803 | 37246 ft | 428 kts | 228° |
| 2026-05-06 21:36 | 53.00563 | 16.18088 | 37441 ft | 429 kts | 228° |
| 2026-05-06 21:36 | 52.98572 | 16.14399 | 37645 ft | 429 kts | 228° |
| 2026-05-06 21:37 | 52.96587 | 16.10730 | 37799 ft | 430 kts | 229° |
| 2026-05-06 21:37 | 52.94584 | 16.07029 | 37811 ft | 430 kts | 228° |
| 2026-05-06 21:37 | 52.90610 | 15.99700 | 37828 ft | 429 kts | 229° |
| 2026-05-06 21:38 | 52.86610 | 15.92351 | 37827 ft | 429 kts | 229° |
| 2026-05-06 21:38 | 52.82804 | 15.84820 | 37814 ft | 429 kts | 233° |
| 2026-05-06 21:39 | 52.79430 | 15.76685 | 37818 ft | 429 kts | 238° |
| 2026-05-06 21:39 | 52.76469 | 15.68193 | 37825 ft | 430 kts | 240° |
| 2026-05-06 21:40 | 52.73515 | 15.59643 | 37819 ft | 430 kts | 240° |
| 2026-05-06 21:40 | 52.70554 | 15.51084 | 37822 ft | 430 kts | 240° |
| 2026-05-06 21:41 | 52.67598 | 15.42563 | 37817 ft | 430 kts | 240° |
| 2026-05-06 21:41 | 52.64634 | 15.34048 | 37814 ft | 429 kts | 239° |
| 2026-05-06 21:42 | 52.63162 | 15.29828 | 37952 ft | 430 kts | 239° |
| 2026-05-06 21:42 | 52.61671 | 15.25559 | 37875 ft | 428 kts | 239° |
| 2026-05-06 21:42 | 52.60190 | 15.21326 | 37718 ft | 428 kts | 238° |
| 2026-05-06 21:42 | 52.58701 | 15.17078 | 37712 ft | 428 kts | 238° |
| 2026-05-06 21:43 | 52.57209 | 15.12829 | 37887 ft | 429 kts | 239° |
| 2026-05-06 21:43 | 52.55731 | 15.08627 | 37856 ft | 427 kts | 238° |
| 2026-05-06 21:43 | 52.52752 | 15.00178 | 37848 ft | 427 kts | 239° |
| 2026-05-06 21:44 | 52.49785 | 14.91789 | 37825 ft | 428 kts | 238° |
| 2026-05-06 21:44 | 52.46784 | 14.83331 | 37826 ft | 428 kts | 238° |
| 2026-05-06 21:45 | 52.43798 | 14.74950 | 37819 ft | 428 kts | 239° |
| 2026-05-06 21:45 | 52.40929 | 14.66387 | 37830 ft | 430 kts | 242° |
| 2026-05-06 21:46 | 52.38552 | 14.57428 | 37829 ft | 431 kts | 248° |
| 2026-05-06 21:46 | 52.36704 | 14.48094 | 37839 ft | 434 kts | 253° |
| 2026-05-06 21:47 | 52.35377 | 14.38487 | 37639 ft | 435 kts | 256° |
| 2026-05-06 21:47 | 52.34771 | 14.33662 | 37825 ft | 436 kts | 255° |
| 2026-05-06 21:47 | 52.34164 | 14.28848 | 37825 ft | 435 kts | 255° |
| 2026-05-06 21:48 | 52.32943 | 14.19186 | 37825 ft | 435 kts | 255° |
| 2026-05-06 21:48 | 52.31706 | 14.09483 | 37829 ft | 436 kts | 255° |
| 2026-05-06 21:49 | 52.30453 | 13.99848 | 37829 ft | 437 kts | 255° |
| 2026-05-06 21:49 | 52.29176 | 13.90151 | 37830 ft | 437 kts | 255° |
| 2026-05-06 21:50 | 52.27902 | 13.80507 | 37835 ft | 437 kts | 255° |
| 2026-05-06 21:50 | 52.26615 | 13.70844 | 37847 ft | 437 kts | 255° |
| 2026-05-06 21:51 | 52.25319 | 13.61156 | 37843 ft | 438 kts | 255° |
| 2026-05-06 21:51 | 52.24020 | 13.51470 | 37834 ft | 439 kts | 255° |
| 2026-05-06 21:52 | 52.22704 | 13.41721 | 37835 ft | 439 kts | 255° |
| 2026-05-06 21:52 | 52.21391 | 13.32062 | 37838 ft | 439 kts | 255° |
| 2026-05-06 21:53 | 52.20065 | 13.22361 | 37843 ft | 439 kts | 254° |
| 2026-05-06 21:53 | 52.18733 | 13.12664 | 37837 ft | 440 kts | 254° |
| 2026-05-06 21:54 | 52.17386 | 13.02946 | 37833 ft | 441 kts | 255° |
| 2026-05-06 21:54 | 52.16022 | 12.93179 | 37843 ft | 443 kts | 255° |
| 2026-05-06 21:55 | 52.14653 | 12.83453 | 37846 ft | 442 kts | 255° |
| 2026-05-06 21:55 | 52.13283 | 12.73768 | 37840 ft | 442 kts | 255° |
| 2026-05-06 21:56 | 52.11896 | 12.64029 | 37841 ft | 441 kts | 254° |
| 2026-05-06 21:56 | 52.10511 | 12.54376 | 37831 ft | 441 kts | 255° |
| 2026-05-06 21:57 | 52.09109 | 12.44667 | 37824 ft | 442 kts | 254° |
| 2026-05-06 21:57 | 52.07699 | 12.34957 | 37822 ft | 443 kts | 253° |
| 2026-05-06 21:58 | 52.06275 | 12.25229 | 37824 ft | 443 kts | 253° |
| 2026-05-06 21:58 | 52.04853 | 12.15567 | 37823 ft | 444 kts | 254° |
| 2026-05-06 21:59 | 52.03422 | 12.05894 | 37825 ft | 443 kts | 254° |
| 2026-05-06 21:59 | 52.01915 | 11.96186 | 37827 ft | 443 kts | 249° |
| 2026-05-06 22:00 | 51.99243 | 11.87300 | 37823 ft | 439 kts | 234° |
| 2026-05-06 22:00 | 51.95229 | 11.79905 | 37828 ft | 438 kts | 220° |
| 2026-05-06 22:01 | 51.90193 | 11.74500 | 37833 ft | 438 kts | 206° |
| 2026-05-06 22:01 | 51.84554 | 11.70874 | 37838 ft | 438 kts | 202° |
| 2026-05-06 22:02 | 51.78838 | 11.67522 | 37830 ft | 439 kts | 201° |
| 2026-05-06 22:02 | 51.73067 | 11.64195 | 37833 ft | 438 kts | 201° |
| 2026-05-06 22:03 | 51.67317 | 11.60889 | 37830 ft | 439 kts | 201° |
| 2026-05-06 22:03 | 51.61603 | 11.57611 | 37822 ft | 439 kts | 201° |
| 2026-05-06 22:04 | 51.55831 | 11.54304 | 37822 ft | 440 kts | 201° |
| 2026-05-06 22:04 | 51.50080 | 11.51018 | 37819 ft | 439 kts | 201° |
| 2026-05-06 22:05 | 51.44341 | 11.47748 | 37817 ft | 438 kts | 201° |
| 2026-05-06 22:05 | 51.38565 | 11.44579 | 37810 ft | 439 kts | 198° |
| 2026-05-06 22:06 | 51.32706 | 11.41775 | 37812 ft | 439 kts | 198° |
| 2026-05-06 22:06 | 51.26893 | 11.38957 | 37809 ft | 440 kts | 198° |
| 2026-05-06 22:07 | 51.23966 | 11.37543 | 37699 ft | 440 kts | 198° |
| 2026-05-06 22:07 | 51.21021 | 11.36124 | 37722 ft | 440 kts | 198° |
| 2026-05-06 22:07 | 51.15187 | 11.33322 | 37790 ft | 440 kts | 197° |
| 2026-05-06 22:08 | 51.09316 | 11.30509 | 37801 ft | 440 kts | 197° |
| 2026-05-06 22:08 | 51.03460 | 11.27708 | 37802 ft | 441 kts | 197° |
| 2026-05-06 22:09 | 50.97611 | 11.24902 | 37800 ft | 441 kts | 198° |
| 2026-05-06 22:09 | 50.91909 | 11.21333 | 37799 ft | 440 kts | 205° |
| 2026-05-06 22:10 | 50.86441 | 11.16962 | 37796 ft | 441 kts | 208° |
| 2026-05-06 22:10 | 50.81190 | 11.11986 | 37790 ft | 441 kts | 213° |
| 2026-05-06 22:11 | 50.76096 | 11.06604 | 37792 ft | 441 kts | 213° |
| 2026-05-06 22:11 | 50.71020 | 11.01267 | 37787 ft | 442 kts | 213° |
| 2026-05-06 22:12 | 50.68478 | 10.98492 | 37901 ft | 442 kts | 214° |
| 2026-05-06 22:12 | 50.65957 | 10.95704 | 37835 ft | 441 kts | 214° |
| 2026-05-06 22:12 | 50.60928 | 10.90236 | 37799 ft | 441 kts | 211° |
| 2026-05-06 22:13 | 50.55470 | 10.85881 | 37798 ft | 441 kts | 202° |
| 2026-05-06 22:13 | 50.49564 | 10.83111 | 37798 ft | 442 kts | 192° |
| 2026-05-06 22:14 | 50.43454 | 10.82035 | 37803 ft | 444 kts | 183° |
| 2026-05-06 22:14 | 50.37295 | 10.82070 | 37813 ft | 444 kts | 181° |
| 2026-05-06 22:15 | 50.31110 | 10.82155 | 37813 ft | 444 kts | 181° |
| 2026-05-06 22:15 | 50.24945 | 10.82241 | 37818 ft | 443 kts | 181° |
| 2026-05-06 22:16 | 50.18824 | 10.82326 | 37820 ft | 443 kts | 181° |
| 2026-05-06 22:16 | 50.12658 | 10.82411 | 37815 ft | 442 kts | 181° |
| 2026-05-06 22:17 | 50.06508 | 10.82499 | 37815 ft | 442 kts | 181° |
| 2026-05-06 22:17 | 50.00351 | 10.82597 | 37815 ft | 443 kts | 181° |
| 2026-05-06 22:18 | 49.94202 | 10.82693 | 37820 ft | 442 kts | 181° |
| 2026-05-06 22:18 | 49.88049 | 10.82781 | 37834 ft | 443 kts | 181° |
| 2026-05-06 22:19 | 49.84940 | 10.82825 | 37715 ft | 443 kts | 181° |
| 2026-05-06 22:19 | 49.81866 | 10.82869 | 37894 ft | 443 kts | 181° |
| 2026-05-06 22:19 | 49.75709 | 10.82930 | 37845 ft | 442 kts | 182° |
| 2026-05-06 22:20 | 49.69564 | 10.82518 | 37824 ft | 443 kts | 184° |
| 2026-05-06 22:20 | 49.63426 | 10.82089 | 37847 ft | 443 kts | 184° |
| 2026-05-06 22:21 | 49.57350 | 10.81059 | 37848 ft | 441 kts | 193° |
| 2026-05-06 22:21 | 49.51538 | 10.78036 | 37840 ft | 440 kts | 206° |
| 2026-05-06 22:22 | 49.46502 | 10.72746 | 37810 ft | 443 kts | 222° |
| 2026-05-06 22:22 | 49.42348 | 10.65768 | 37832 ft | 445 kts | 227° |
| 2026-05-06 22:23 | 49.38282 | 10.58562 | 37844 ft | 447 kts | 228° |
| 2026-05-06 22:23 | 49.34228 | 10.51392 | 37845 ft | 447 kts | 227° |
| 2026-05-06 22:24 | 49.30137 | 10.44186 | 37845 ft | 448 kts | 228° |
| 2026-05-06 22:24 | 49.26071 | 10.37046 | 37847 ft | 448 kts | 228° |
| 2026-05-06 22:25 | 49.21975 | 10.29875 | 37842 ft | 448 kts | 227° |
| 2026-05-06 22:25 | 49.17864 | 10.22695 | 37843 ft | 449 kts | 227° |
| 2026-05-06 22:26 | 49.13767 | 10.15559 | 37842 ft | 450 kts | 227° |
| 2026-05-06 22:26 | 49.09627 | 10.08368 | 37844 ft | 449 kts | 227° |
| 2026-05-06 22:27 | 49.05517 | 10.01250 | 37847 ft | 450 kts | 227° |
| 2026-05-06 22:27 | 49.01381 | 9.94107 | 37849 ft | 450 kts | 227° |
| 2026-05-06 22:28 | 48.97232 | 9.86961 | 37848 ft | 450 kts | 227° |
| 2026-05-06 22:28 | 48.93076 | 9.79822 | 37855 ft | 451 kts | 227° |
| 2026-05-06 22:29 | 48.88893 | 9.72654 | 37845 ft | 452 kts | 227° |
| 2026-05-06 22:29 | 48.84721 | 9.65526 | 37849 ft | 452 kts | 227° |
| 2026-05-06 22:30 | 48.80551 | 9.58417 | 37858 ft | 453 kts | 227° |
| 2026-05-06 22:30 | 48.76374 | 9.51313 | 37858 ft | 453 kts | 227° |
| 2026-05-06 22:31 | 48.72174 | 9.44188 | 37875 ft | 454 kts | 227° |
| 2026-05-06 22:31 | 48.67940 | 9.37105 | 37865 ft | 453 kts | 225° |
| 2026-05-06 22:32 | 48.63148 | 9.31044 | 37875 ft | 452 kts | 213° |
| 2026-05-06 22:32 | 48.57516 | 9.27013 | 37868 ft | 452 kts | 197° |
| 2026-05-06 22:33 | 48.51310 | 9.25097 | 37887 ft | 453 kts | 191° |
| 2026-05-06 22:33 | 48.45133 | 9.23488 | 37882 ft | 454 kts | 190° |
| 2026-05-06 22:34 | 48.38895 | 9.21862 | 37888 ft | 454 kts | 190° |
| 2026-05-06 22:34 | 48.32668 | 9.20253 | 37895 ft | 454 kts | 190° |
| 2026-05-06 22:35 | 48.29573 | 9.19472 | 37793 ft | 454 kts | 189° |
| 2026-05-06 22:35 | 48.26460 | 9.18792 | 37677 ft | 454 kts | 189° |
| 2026-05-06 22:35 | 48.23334 | 9.18149 | 37572 ft | 455 kts | 188° |
| 2026-05-06 22:35 | 48.20215 | 9.17461 | 37429 ft | 454 kts | 191° |
| 2026-05-06 22:36 | 48.17115 | 9.16491 | 37269 ft | 453 kts | 194° |
| 2026-05-06 22:36 | 48.14064 | 9.15208 | 37108 ft | 452 kts | 198° |
| 2026-05-06 22:36 | 48.11104 | 9.13636 | 36960 ft | 452 kts | 202° |
| 2026-05-06 22:36 | 48.08234 | 9.11781 | 36904 ft | 451 kts | 206° |
| 2026-05-06 22:37 | 48.02636 | 9.07629 | 36894 ft | 451 kts | 206° |
| 2026-05-06 22:37 | 47.96957 | 9.03426 | 36898 ft | 453 kts | 206° |
| 2026-05-06 22:38 | 47.91310 | 8.99254 | 36904 ft | 452 kts | 206° |
| 2026-05-06 22:38 | 47.85654 | 8.95087 | 36908 ft | 452 kts | 206° |
| 2026-05-06 22:39 | 47.79905 | 8.91418 | 36918 ft | 452 kts | 201° |
| 2026-05-06 22:39 | 47.73919 | 8.88619 | 36922 ft | 453 kts | 195° |
| 2026-05-06 22:40 | 47.67742 | 8.86672 | 36922 ft | 453 kts | 192° |
| 2026-05-06 22:40 | 47.61570 | 8.84887 | 36924 ft | 454 kts | 192° |
| 2026-05-06 22:41 | 47.52271 | 8.82209 | 36929 ft | 453 kts | 192° |
| 2026-05-06 22:42 | 47.46102 | 8.80444 | 36928 ft | 453 kts | 192° |
| 2026-05-06 22:42 | 47.39928 | 8.78686 | 36924 ft | 453 kts | 193° |
| 2026-05-06 22:43 | 47.33773 | 8.76936 | 36927 ft | 453 kts | 193° |
| 2026-05-06 22:43 | 47.27632 | 8.75197 | 36927 ft | 452 kts | 193° |
| 2026-05-06 22:44 | 47.21442 | 8.73442 | 36924 ft | 452 kts | 193° |
| 2026-05-06 22:44 | 47.15284 | 8.71702 | 36865 ft | 453 kts | 193° |
| 2026-05-06 22:44 | 47.12172 | 8.70827 | 36534 ft | 451 kts | 193° |
| 2026-05-06 22:45 | 47.09149 | 8.69978 | 36199 ft | 446 kts | 193° |
| 2026-05-06 22:45 | 47.06121 | 8.69128 | 35867 ft | 440 kts | 193° |
| 2026-05-06 22:45 | 47.03107 | 8.68283 | 35528 ft | 435 kts | 193° |
| 2026-05-06 22:45 | 47.00182 | 8.67463 | 35194 ft | 430 kts | 193° |
| 2026-05-06 22:46 | 46.97238 | 8.66638 | 34864 ft | 426 kts | 194° |
| 2026-05-06 22:46 | 46.94349 | 8.65830 | 34526 ft | 422 kts | 194° |
| 2026-05-06 22:46 | 46.91472 | 8.65024 | 34191 ft | 419 kts | 194° |
| 2026-05-06 22:46 | 46.88645 | 8.64234 | 33876 ft | 415 kts | 194° |
| 2026-05-06 22:47 | 46.85806 | 8.63442 | 33572 ft | 411 kts | 194° |
| 2026-05-06 22:47 | 46.83012 | 8.62662 | 33282 ft | 407 kts | 194° |
| 2026-05-06 22:47 | 46.80262 | 8.61894 | 32984 ft | 404 kts | 194° |
| 2026-05-06 22:47 | 46.77499 | 8.61127 | 32693 ft | 400 kts | 194° |
| 2026-05-06 22:48 | 46.74777 | 8.60369 | 32405 ft | 397 kts | 194° |
| 2026-05-06 22:48 | 46.72105 | 8.59627 | 32133 ft | 396 kts | 194° |
| 2026-05-06 22:48 | 46.69414 | 8.58880 | 31791 ft | 393 kts | 194° |
| 2026-05-06 22:48 | 46.66735 | 8.58137 | 31431 ft | 389 kts | 194° |
| 2026-05-06 22:49 | 46.64075 | 8.57401 | 31071 ft | 386 kts | 194° |
| 2026-05-06 22:49 | 46.61462 | 8.56679 | 30712 ft | 382 kts | 194° |
| 2026-05-06 22:49 | 46.58880 | 8.55965 | 30348 ft | 379 kts | 194° |
| 2026-05-06 22:49 | 46.56284 | 8.55247 | 29977 ft | 376 kts | 194° |
| 2026-05-06 22:50 | 46.53736 | 8.54541 | 29615 ft | 375 kts | 194° |
| 2026-05-06 22:50 | 46.51166 | 8.53831 | 29243 ft | 375 kts | 193° |
| 2026-05-06 22:50 | 46.48633 | 8.53134 | 28875 ft | 373 kts | 193° |
| 2026-05-06 22:50 | 46.46080 | 8.52432 | 28501 ft | 371 kts | 194° |
| 2026-05-06 22:51 | 46.43564 | 8.51740 | 28134 ft | 370 kts | 193° |
| 2026-05-06 22:51 | 46.41040 | 8.51043 | 27764 ft | 369 kts | 193° |
| 2026-05-06 22:51 | 46.38537 | 8.50357 | 27389 ft | 367 kts | 193° |
| 2026-05-06 22:51 | 46.36025 | 8.49670 | 27021 ft | 366 kts | 193° |
| 2026-05-06 22:52 | 46.33513 | 8.48982 | 26652 ft | 365 kts | 193° |
| 2026-05-06 22:52 | 46.31054 | 8.48321 | 26354 ft | 365 kts | 192° |
| 2026-05-06 22:52 | 46.28534 | 8.47874 | 26056 ft | 365 kts | 187° |
| 2026-05-06 22:52 | 46.25983 | 8.47719 | 25759 ft | 367 kts | 183° |
| 2026-05-06 22:53 | 46.23452 | 8.47858 | 25454 ft | 368 kts | 179° |
| 2026-05-06 22:53 | 46.20913 | 8.48200 | 25141 ft | 367 kts | 178° |
| 2026-05-06 22:53 | 46.18369 | 8.48553 | 24837 ft | 365 kts | 177° |
| 2026-05-06 22:53 | 46.15836 | 8.48911 | 24525 ft | 364 kts | 177° |
| 2026-05-06 22:54 | 46.13325 | 8.49200 | 24212 ft | 362 kts | 180° |
| 2026-05-06 22:54 | 46.10817 | 8.49259 | 23889 ft | 360 kts | 184° |
| 2026-05-06 22:54 | 46.08329 | 8.49077 | 23562 ft | 359 kts | 187° |
| 2026-05-06 22:54 | 46.05855 | 8.48669 | 23227 ft | 357 kts | 189° |
| 2026-05-06 22:55 | 46.03393 | 8.48216 | 22892 ft | 356 kts | 189° |
| 2026-05-06 22:55 | 46.00948 | 8.47764 | 22565 ft | 355 kts | 190° |
| 2026-05-06 22:55 | 45.98515 | 8.47312 | 22238 ft | 353 kts | 190° |
| 2026-05-06 22:55 | 45.96085 | 8.46861 | 21911 ft | 352 kts | 189° |
| 2026-05-06 22:56 | 45.93651 | 8.46411 | 21582 ft | 351 kts | 190° |
| 2026-05-06 22:56 | 45.91222 | 8.45962 | 21260 ft | 349 kts | 190° |
| 2026-05-06 22:56 | 45.88826 | 8.45518 | 20940 ft | 347 kts | 190° |
| 2026-05-06 22:56 | 45.86454 | 8.45078 | 20623 ft | 347 kts | 189° |
| 2026-05-06 22:57 | 45.84060 | 8.44635 | 20303 ft | 346 kts | 190° |
| 2026-05-06 22:57 | 45.81679 | 8.44195 | 19977 ft | 345 kts | 190° |
| 2026-05-06 22:57 | 45.79319 | 8.43759 | 19688 ft | 343 kts | 189° |
| 2026-05-06 22:57 | 45.76941 | 8.43321 | 19397 ft | 340 kts | 189° |
| 2026-05-06 22:58 | 45.74620 | 8.42893 | 19113 ft | 335 kts | 190° |
| 2026-05-06 22:58 | 45.72338 | 8.42474 | 18831 ft | 331 kts | 190° |
| 2026-05-06 22:58 | 45.70072 | 8.42058 | 18563 ft | 327 kts | 190° |
| 2026-05-06 22:58 | 45.67821 | 8.41645 | 18299 ft | 322 kts | 190° |
| 2026-05-06 22:59 | 45.65612 | 8.41228 | 18069 ft | 317 kts | 192° |
| 2026-05-06 22:59 | 45.63495 | 8.40557 | 17809 ft | 311 kts | 199° |
| 2026-05-06 22:59 | 45.61482 | 8.39543 | 17511 ft | 306 kts | 205° |
| 2026-05-06 22:59 | 45.59559 | 8.38200 | 17264 ft | 305 kts | 210° |
| 2026-05-06 23:00 | 45.57713 | 8.36762 | 16989 ft | 305 kts | 211° |
| 2026-05-06 23:00 | 45.55859 | 8.35301 | 16750 ft | 304 kts | 211° |
| 2026-05-06 23:00 | 45.53999 | 8.33837 | 16498 ft | 303 kts | 210° |
| 2026-05-06 23:00 | 45.52144 | 8.32378 | 16252 ft | 302 kts | 210° |
| 2026-05-06 23:01 | 45.50308 | 8.30938 | 15992 ft | 302 kts | 210° |
| 2026-05-06 23:01 | 45.48477 | 8.29504 | 15741 ft | 300 kts | 210° |
| 2026-05-06 23:01 | 45.46654 | 8.28078 | 15493 ft | 299 kts | 210° |
| 2026-05-06 23:01 | 45.44855 | 8.26672 | 15217 ft | 299 kts | 210° |
| 2026-05-06 23:02 | 45.43013 | 8.25232 | 14946 ft | 299 kts | 210° |
| 2026-05-06 23:02 | 45.41201 | 8.23818 | 14703 ft | 298 kts | 210° |
| 2026-05-06 23:02 | 45.39374 | 8.22393 | 14445 ft | 297 kts | 210° |
| 2026-05-06 23:02 | 45.37579 | 8.20995 | 14218 ft | 296 kts | 210° |
| 2026-05-06 23:03 | 45.35766 | 8.19581 | 13982 ft | 295 kts | 210° |
| 2026-05-06 23:03 | 45.33981 | 8.18192 | 13736 ft | 295 kts | 210° |
| 2026-05-06 23:03 | 45.32174 | 8.16788 | 13478 ft | 294 kts | 210° |
| 2026-05-06 23:03 | 45.30397 | 8.15406 | 13206 ft | 293 kts | 210° |
| 2026-05-06 23:04 | 45.28588 | 8.14002 | 13013 ft | 292 kts | 210° |
| 2026-05-06 23:04 | 45.26822 | 8.12632 | 12827 ft | 292 kts | 210° |
| 2026-05-06 23:04 | 45.25232 | 8.10895 | 12607 ft | 289 kts | 232° |
| 2026-05-06 23:04 | 45.24364 | 8.08359 | 12400 ft | 287 kts | 257° |
| 2026-05-06 23:05 | 45.24036 | 8.05588 | 12219 ft | 288 kts | 260° |
| 2026-05-06 23:05 | 45.23727 | 8.02792 | 12005 ft | 288 kts | 260° |
| 2026-05-06 23:05 | 45.23410 | 7.99989 | 11788 ft | 288 kts | 260° |
| 2026-05-06 23:05 | 45.23085 | 7.97173 | 11603 ft | 287 kts | 260° |
| 2026-05-06 23:06 | 45.22758 | 7.94376 | 11389 ft | 287 kts | 260° |
| 2026-05-06 23:06 | 45.22431 | 7.91605 | 11180 ft | 286 kts | 260° |
| 2026-05-06 23:06 | 45.22104 | 7.88840 | 10974 ft | 285 kts | 260° |
| 2026-05-06 23:06 | 45.21778 | 7.86104 | 10787 ft | 284 kts | 260° |
| 2026-05-06 23:07 | 45.21449 | 7.83357 | 10588 ft | 284 kts | 258° |
| 2026-05-06 23:07 | 45.20709 | 7.80810 | 10373 ft | 281 kts | 230° |
| 2026-05-06 23:07 | 45.19140 | 7.79233 | 10194 ft | 277 kts | 199° |
| 2026-05-06 23:07 | 45.17255 | 7.78875 | 10030 ft | 272 kts | 182° |
| 2026-05-06 23:08 | 45.15384 | 7.78811 | 9856 ft | 268 kts | 182° |
| 2026-05-06 23:08 | 45.13537 | 7.78726 | 9681 ft | 264 kts | 183° |
| 2026-05-06 23:08 | 45.11718 | 7.78622 | 9506 ft | 260 kts | 184° |
| 2026-05-06 23:08 | 45.09920 | 7.78509 | 9331 ft | 258 kts | 184° |
| 2026-05-06 23:09 | 45.08120 | 7.78391 | 9161 ft | 259 kts | 184° |
| 2026-05-06 23:09 | 45.06311 | 7.78273 | 8986 ft | 259 kts | 184° |
| 2026-05-06 23:09 | 45.04516 | 7.78156 | 8818 ft | 258 kts | 184° |
| 2026-05-06 23:09 | 45.02728 | 7.78040 | 8647 ft | 258 kts | 184° |
| 2026-05-06 23:10 | 45.00939 | 7.77922 | 8468 ft | 257 kts | 184° |
| 2026-05-06 23:10 | 44.99158 | 7.77807 | 8304 ft | 257 kts | 184° |
| 2026-05-06 23:10 | 44.97374 | 7.77691 | 8155 ft | 256 kts | 184° |
| 2026-05-06 23:10 | 44.95597 | 7.77573 | 7976 ft | 256 kts | 184° |
| 2026-05-06 23:11 | 44.93800 | 7.77455 | 7796 ft | 256 kts | 184° |
| 2026-05-06 23:11 | 44.92033 | 7.77338 | 7623 ft | 255 kts | 184° |
| 2026-05-06 23:11 | 44.90261 | 7.77219 | 7432 ft | 255 kts | 184° |
| 2026-05-06 23:11 | 44.88494 | 7.77104 | 7251 ft | 254 kts | 184° |
| 2026-05-06 23:12 | 44.86739 | 7.76989 | 7081 ft | 252 kts | 184° |
| 2026-05-06 23:12 | 44.85005 | 7.76875 | 6919 ft | 249 kts | 184° |
| 2026-05-06 23:12 | 44.83272 | 7.76762 | 6734 ft | 246 kts | 184° |
| 2026-05-06 23:12 | 44.81632 | 7.76270 | 6530 ft | 241 kts | 213° |
| 2026-05-06 23:13 | 44.80555 | 7.74573 | 6342 ft | 233 kts | 250° |
| 2026-05-06 23:13 | 44.80359 | 7.72384 | 6173 ft | 227 kts | 275° |
| 2026-05-06 23:13 | 44.80490 | 7.70184 | 6000 ft | 223 kts | 275° |
| 2026-05-06 23:13 | 44.80611 | 7.68008 | 5828 ft | 223 kts | 275° |
| 2026-05-06 23:14 | 44.80728 | 7.65834 | 5636 ft | 223 kts | 280° |
| 2026-05-06 23:14 | 44.81332 | 7.63874 | 5443 ft | 221 kts | 314° |
| 2026-05-06 23:14 | 44.82595 | 7.62735 | 5263 ft | 220 kts | 346° |
| 2026-05-06 23:14 | 44.84118 | 7.62616 | 5109 ft | 221 kts | 2° |
| 2026-05-06 23:15 | 44.85659 | 7.62748 | 4941 ft | 223 kts | 3° |
| 2026-05-06 23:15 | 44.87201 | 7.62877 | 4765 ft | 221 kts | 2° |
| 2026-05-06 23:15 | 44.88735 | 7.62992 | 4581 ft | 218 kts | 2° |
| 2026-05-06 23:15 | 44.90239 | 7.63095 | 4402 ft | 215 kts | 2° |
| 2026-05-06 23:16 | 44.91721 | 7.63192 | 4226 ft | 212 kts | 2° |
| 2026-05-06 23:16 | 44.93187 | 7.63284 | 4060 ft | 208 kts | 2° |
| 2026-05-06 23:16 | 44.94608 | 7.63373 | 4008 ft | 197 kts | 2° |
| 2026-05-06 23:16 | 44.95959 | 7.63457 | 4006 ft | 197 kts | 2° |
| 2026-05-06 23:17 | 44.97338 | 7.63543 | 4002 ft | 197 kts | 2° |
| 2026-05-06 23:17 | 44.98681 | 7.63628 | 3993 ft | 187 kts | 2° |
| 2026-05-06 23:17 | 44.99945 | 7.63697 | 3992 ft | 175 kts | 1° |
| 2026-05-06 23:17 | 45.01163 | 7.63761 | 4012 ft | 176 kts | 2° |
| 2026-05-06 23:18 | 45.02385 | 7.63831 | 4013 ft | 172 kts | 2° |
| 2026-05-06 23:18 | 45.03552 | 7.63903 | 3936 ft | 166 kts | 2° |
| 2026-05-06 23:18 | 45.04704 | 7.63977 | 3712 ft | 165 kts | 2° |
| 2026-05-06 23:18 | 45.05847 | 7.64051 | 3487 ft | 164 kts | 2° |
| 2026-05-06 23:19 | 45.06961 | 7.64124 | 3261 ft | 158 kts | 2° |
| 2026-05-06 23:19 | 45.08027 | 7.64194 | 3049 ft | 151 kts | 2° |
| 2026-05-06 23:19 | 45.09054 | 7.64260 | 2846 ft | 144 kts | 2° |
| 2026-05-06 23:19 | 45.10047 | 7.64325 | 2663 ft | 142 kts | 2° |
| 2026-05-06 23:20 | 45.11037 | 7.64384 | 2500 ft | 142 kts | 2° |
| 2026-05-06 23:20 | 45.12028 | 7.64444 | 2338 ft | 142 kts | 2° |
| 2026-05-06 23:20 | 45.13011 | 7.64502 | 2177 ft | 141 kts | 2° |
| 2026-05-06 23:20 | 45.13988 | 7.64563 | 1984 ft | 141 kts | 2° |
| 2026-05-06 23:21 | 45.14971 | 7.64636 | 1782 ft | 140 kts | 2° |
| 2026-05-06 23:21 | 45.15955 | 7.64701 | 1592 ft | 140 kts | 2° |
| 2026-05-06 23:21 | 45.16931 | 7.64759 | 1401 ft | 140 kts | 2° |
| 2026-05-06 23:21 | 45.17904 | 7.64822 | 1206 ft | 139 kts | 2° |
| 2026-05-06 23:22 | 45.18860 | 7.64888 | 1018 ft | 138 kts | 2° |
| 2026-05-06 23:22 | 45.19790 | 7.64946 | 973 ft | 120 kts | 2° |
| 2026-05-06 23:22 | 45.20463 | 7.64987 | 985 ft | 72 kts | 3° |
| 2026-05-06 23:22 | 45.20714 | 7.65005 | 993 ft | 22 kts | 4° |
| 2026-05-06 23:23 | 45.20804 | 7.65004 | 995 ft | 11 kts | 345° |
| 2026-05-06 23:23 | 45.20860 | 7.64945 | 996 ft | 8 kts | 304° |
| 2026-05-06 23:23 | 45.20873 | 7.64896 | 997 ft | 3 kts | 283° |
| 2026-05-06 23:23 | 45.20875 | 7.64862 | 998 ft | 3 kts | 270° |
| 2026-05-06 23:24 | 45.20873 | 7.64828 | 999 ft | 3 kts | 258° |
| 2026-05-06 23:24 | 45.20864 | 7.64795 | 999 ft | 4 kts | 244° |
| 2026-05-06 23:24 | 45.20831 | 7.64755 | 998 ft | 8 kts | 200° |
| 2026-05-06 23:24 | 45.20757 | 7.64741 | 998 ft | 12 kts | 184° |
| 2026-05-06 23:25 | 45.20663 | 7.64733 | 995 ft | 15 kts | 184° |
| 2026-05-06 23:25 | 45.20549 | 7.64726 | 993 ft | 17 kts | 182° |
| 2026-05-06 23:25 | 45.20423 | 7.64717 | 991 ft | 19 kts | 183° |
| 2026-05-06 23:25 | 45.20285 | 7.64709 | 989 ft | 21 kts | 182° |
| 2026-05-06 23:26 | 45.20136 | 7.64699 | 987 ft | 22 kts | 183° |
| 2026-05-06 23:26 | 45.19980 | 7.64690 | 984 ft | 22 kts | 183° |
| 2026-05-06 23:26 | 45.19819 | 7.64679 | 981 ft | 23 kts | 182° |
| 2026-05-06 23:26 | 45.19654 | 7.64693 | 977 ft | 24 kts | 183° |
| 2026-05-06 23:27 | 45.19491 | 7.64681 | 972 ft | 19 kts | 183° |
| 2026-05-06 23:27 | 45.19393 | 7.64679 | 970 ft | 11 kts | 184° |
| 2026-05-06 23:27 | 45.19346 | 7.64655 | 969 ft | 3 kts | 240° |
| 2026-05-06 23:27 | 45.19339 | 7.64628 | 970 ft | 3 kts | 250° |
| 2026-05-06 23:28 | 45.19334 | 7.64604 | 970 ft | 2 kts | 257° |
| 2026-05-06 23:28 | 45.19330 | 7.64582 | 970 ft | 2 kts | 257° |
| 2026-05-06 23:28 | 45.19326 | 7.64555 | 971 ft | 3 kts | 257° |
| 2026-05-06 23:28 | 45.19323 | 7.64538 | 971 ft | 0 kts | 257° |
| 2026-05-06 23:29 | 45.19323 | 7.64535 | 971 ft | 0 kts | 258° |